sensor_id;sensor_type;location;lat;lon;timestamp;temperature;humidity
70475;DHT22;57944;48.722;9.316;2022-07-29T00:02:03;18.30;99.90
70475;DHT22;57944;48.722;9.316;2022-07-29T00:04:37;18.30;99.90
70475;DHT22;57944;48.722;9.316;2022-07-29T00:07:07;18.30;99.90
70475;DHT22;57944;48.722;9.316;2022-07-29T00:09:39;18.30;99.90
70475;DHT22;57944;48.722;9.316;2022-07-29T00:12:18;18.40;99.90
70475;DHT22;57944;48.722;9.316;2022-07-29T00:14:53;18.30;99.90
70475;DHT22;57944;48.722;9.316;2022-07-29T00:17:24;18.30;99.90
70475;DHT22;57944;48.722;9.316;2022-07-29T00:19:57;18.30;99.90
70475;DHT22;57944;48.722;9.316;2022-07-29T00:22:27;18.30;99.90
70475;DHT22;57944;48.722;9.316;2022-07-29T00:24:57;18.30;99.90
70475;DHT22;57944;48.722;9.316;2022-07-29T00:27:27;18.30;99.90
70475;DHT22;57944;48.722;9.316;2022-07-29T00:29:57;18.30;99.90
70475;DHT22;57944;48.722;9.316;2022-07-29T00:32:27;18.40;99.90
70475;DHT22;57944;48.722;9.316;2022-07-29T00:35:00;18.50;99.90
70475;DHT22;57944;48.722;9.316;2022-07-29T00:37:43;18.40;99.90
70475;DHT22;57944;48.722;9.316;2022-07-29T00:40:13;18.40;99.90
70475;DHT22;57944;48.722;9.316;2022-07-29T00:42:43;18.40;99.90
70475;DHT22;57944;48.722;9.316;2022-07-29T00:45:14;18.40;99.90
70475;DHT22;57944;48.722;9.316;2022-07-29T00:47:45;18.40;99.90
70475;DHT22;57944;48.722;9.316;2022-07-29T00:50:18;18.40;99.90
70475;DHT22;57944;48.722;9.316;2022-07-29T00:52:48;18.30;99.90
70475;DHT22;57944;48.722;9.316;2022-07-29T00:55:20;18.20;99.90
70475;DHT22;57944;48.722;9.316;2022-07-29T00:57:50;18.10;99.90
70475;DHT22;57944;48.722;9.316;2022-07-29T01:00:24;18.00;99.90
70475;DHT22;57944;48.722;9.316;2022-07-29T01:02:56;18.00;99.90
70475;DHT22;57944;48.722;9.316;2022-07-29T01:05:30;17.90;99.90
70475;DHT22;57944;48.722;9.316;2022-07-29T01:08:17;17.70;99.90
70475;DHT22;57944;48.722;9.316;2022-07-29T01:10:51;17.70;99.90
70475;DHT22;57944;48.722;9.316;2022-07-29T01:13:22;17.70;99.90
70475;DHT22;57944;48.722;9.316;2022-07-29T01:15:57;17.70;99.90
70475;DHT22;57944;48.722;9.316;2022-07-29T01:18:46;17.70;99.90
70475;DHT22;57944;48.722;9.316;2022-07-29T01:21:40;17.60;99.90
70475;DHT22;57944;48.722;9.316;2022-07-29T01:24:39;17.50;99.90
70475;DHT22;57944;48.722;9.316;2022-07-29T01:27:45;17.40;99.90
70475;DHT22;57944;48.722;9.316;2022-07-29T01:30:32;17.40;99.90
70475;DHT22;57944;48.722;9.316;2022-07-29T01:33:09;17.40;99.90
70475;DHT22;57944;48.722;9.316;2022-07-29T01:36:09;17.50;99.90
70475;DHT22;57944;48.722;9.316;2022-07-29T01:41:38;17.50;99.90
70475;DHT22;57944;48.722;9.316;2022-07-29T01:44:16;17.60;99.90
70475;DHT22;57944;48.722;9.316;2022-07-29T01:46:54;17.50;99.90
70475;DHT22;57944;48.722;9.316;2022-07-29T01:49:31;17.40;99.90
70475;DHT22;57944;48.722;9.316;2022-07-29T01:52:11;17.40;99.90
70475;DHT22;57944;48.722;9.316;2022-07-29T01:54:48;17.40;99.90
70475;DHT22;57944;48.722;9.316;2022-07-29T01:57:27;17.50;99.90
70475;DHT22;57944;48.722;9.316;2022-07-29T01:59:59;17.50;99.90
70475;DHT22;57944;48.722;9.316;2022-07-29T02:02:42;17.50;99.90
70475;DHT22;57944;48.722;9.316;2022-07-29T02:05:15;17.50;99.90
70475;DHT22;57944;48.722;9.316;2022-07-29T02:07:49;17.40;99.90
70475;DHT22;57944;48.722;9.316;2022-07-29T02:10:25;17.40;99.90
70475;DHT22;57944;48.722;9.316;2022-07-29T02:12:58;17.40;99.90
70475;DHT22;57944;48.722;9.316;2022-07-29T02:15:32;17.50;99.90
70475;DHT22;57944;48.722;9.316;2022-07-29T02:18:08;17.50;99.90
70475;DHT22;57944;48.722;9.316;2022-07-29T02:20:45;17.50;99.90
70475;DHT22;57944;48.722;9.316;2022-07-29T02:23:19;17.50;99.90
70475;DHT22;57944;48.722;9.316;2022-07-29T02:25:53;17.40;99.90
70475;DHT22;57944;48.722;9.316;2022-07-29T02:28:27;17.20;99.90
70475;DHT22;57944;48.722;9.316;2022-07-29T02:31:01;17.10;99.90
70475;DHT22;57944;48.722;9.316;2022-07-29T02:33:37;17.10;99.90
70475;DHT22;57944;48.722;9.316;2022-07-29T02:36:10;17.00;99.90
70475;DHT22;57944;48.722;9.316;2022-07-29T02:38:42;17.00;99.90
70475;DHT22;57944;48.722;9.316;2022-07-29T02:41:23;16.90;99.90
70475;DHT22;57944;48.722;9.316;2022-07-29T02:44:02;16.90;99.90
70475;DHT22;57944;48.722;9.316;2022-07-29T02:46:36;16.80;99.90
70475;DHT22;57944;48.722;9.316;2022-07-29T02:49:18;16.90;99.90
70475;DHT22;57944;48.722;9.316;2022-07-29T02:52:00;16.80;99.90
70475;DHT22;57944;48.722;9.316;2022-07-29T02:54:37;16.80;99.90
70475;DHT22;57944;48.722;9.316;2022-07-29T02:57:16;16.70;99.90
70475;DHT22;57944;48.722;9.316;2022-07-29T02:59:51;16.90;99.90
70475;DHT22;57944;48.722;9.316;2022-07-29T03:02:26;16.90;99.90
70475;DHT22;57944;48.722;9.316;2022-07-29T03:05:02;17.00;99.90
70475;DHT22;57944;48.722;9.316;2022-07-29T03:07:36;17.00;99.90
70475;DHT22;57944;48.722;9.316;2022-07-29T03:10:09;17.00;99.90
70475;DHT22;57944;48.722;9.316;2022-07-29T03:12:40;16.80;99.90
70475;DHT22;57944;48.722;9.316;2022-07-29T03:15:11;16.80;99.90
70475;DHT22;57944;48.722;9.316;2022-07-29T03:17:42;16.80;99.90
70475;DHT22;57944;48.722;9.316;2022-07-29T03:20:16;16.90;99.90
70475;DHT22;57944;48.722;9.316;2022-07-29T03:22:47;17.00;99.90
70475;DHT22;57944;48.722;9.316;2022-07-29T03:25:19;16.90;99.90
70475;DHT22;57944;48.722;9.316;2022-07-29T03:27:50;16.80;99.90
70475;DHT22;57944;48.722;9.316;2022-07-29T03:30:20;16.80;99.90
70475;DHT22;57944;48.722;9.316;2022-07-29T03:32:50;16.80;99.90
70475;DHT22;57944;48.722;9.316;2022-07-29T03:35:27;16.80;99.90
70475;DHT22;57944;48.722;9.316;2022-07-29T03:37:58;16.90;99.90
70475;DHT22;57944;48.722;9.316;2022-07-29T03:40:33;16.90;99.90
70475;DHT22;57944;48.722;9.316;2022-07-29T03:43:13;16.90;99.90
70475;DHT22;57944;48.722;9.316;2022-07-29T03:45:48;16.90;99.90
70475;DHT22;57944;48.722;9.316;2022-07-29T03:48:22;16.90;99.90
70475;DHT22;57944;48.722;9.316;2022-07-29T03:50:58;17.00;99.90
70475;DHT22;57944;48.722;9.316;2022-07-29T03:53:28;16.90;99.90
70475;DHT22;57944;48.722;9.316;2022-07-29T03:56:00;16.90;99.90
70475;DHT22;57944;48.722;9.316;2022-07-29T03:58:32;16.90;99.90
70475;DHT22;57944;48.722;9.316;2022-07-29T04:01:04;16.90;99.90
70475;DHT22;57944;48.722;9.316;2022-07-29T04:03:34;16.90;99.90
70475;DHT22;57944;48.722;9.316;2022-07-29T04:06:07;16.70;99.90
70475;DHT22;57944;48.722;9.316;2022-07-29T04:08:37;16.70;99.90
70475;DHT22;57944;48.722;9.316;2022-07-29T04:11:07;16.60;99.90
70475;DHT22;57944;48.722;9.316;2022-07-29T04:13:38;16.60;99.90
70475;DHT22;57944;48.722;9.316;2022-07-29T04:16:08;16.50;99.90
70475;DHT22;57944;48.722;9.316;2022-07-29T04:18:38;16.70;99.90
70475;DHT22;57944;48.722;9.316;2022-07-29T04:21:10;16.80;99.90
70475;DHT22;57944;48.722;9.316;2022-07-29T04:23:41;16.90;99.90
70475;DHT22;57944;48.722;9.316;2022-07-29T04:26:20;16.90;99.90
70475;DHT22;57944;48.722;9.316;2022-07-29T04:28:50;16.90;99.90
70475;DHT22;57944;48.722;9.316;2022-07-29T04:31:20;16.90;99.90
70475;DHT22;57944;48.722;9.316;2022-07-29T04:33:51;16.90;99.90
70475;DHT22;57944;48.722;9.316;2022-07-29T04:36:24;17.00;99.90
70475;DHT22;57944;48.722;9.316;2022-07-29T04:38:55;17.10;99.90
70475;DHT22;57944;48.722;9.316;2022-07-29T04:41:26;17.00;99.90
70475;DHT22;57944;48.722;9.316;2022-07-29T04:43:59;17.00;99.90
70475;DHT22;57944;48.722;9.316;2022-07-29T04:46:33;17.20;99.90
70475;DHT22;57944;48.722;9.316;2022-07-29T04:49:03;17.50;99.90
70475;DHT22;57944;48.722;9.316;2022-07-29T04:51:36;17.70;99.90
70475;DHT22;57944;48.722;9.316;2022-07-29T04:54:06;17.90;99.90
70475;DHT22;57944;48.722;9.316;2022-07-29T04:56:36;17.90;99.90
70475;DHT22;57944;48.722;9.316;2022-07-29T04:59:07;18.00;99.90
70475;DHT22;57944;48.722;9.316;2022-07-29T05:01:39;18.30;99.90
70475;DHT22;57944;48.722;9.316;2022-07-29T05:04:09;18.60;99.90
70475;DHT22;57944;48.722;9.316;2022-07-29T05:06:42;18.90;99.90
70475;DHT22;57944;48.722;9.316;2022-07-29T05:09:12;18.90;99.90
70475;DHT22;57944;48.722;9.316;2022-07-29T05:11:42;18.90;99.90
70475;DHT22;57944;48.722;9.316;2022-07-29T05:14:12;19.30;99.90
70475;DHT22;57944;48.722;9.316;2022-07-29T05:16:43;20.00;99.90
70475;DHT22;57944;48.722;9.316;2022-07-29T05:19:13;20.80;99.90
70475;DHT22;57944;48.722;9.316;2022-07-29T05:21:47;21.10;99.90
70475;DHT22;57944;48.722;9.316;2022-07-29T05:24:17;21.70;99.90
70475;DHT22;57944;48.722;9.316;2022-07-29T05:26:47;22.30;99.90
70475;DHT22;57944;48.722;9.316;2022-07-29T05:29:17;22.30;99.90
70475;DHT22;57944;48.722;9.316;2022-07-29T05:32:07;22.30;99.90
70475;DHT22;57944;48.722;9.316;2022-07-29T05:34:37;23.00;99.90
70475;DHT22;57944;48.722;9.316;2022-07-29T05:37:20;23.50;99.90
70475;DHT22;57944;48.722;9.316;2022-07-29T05:39:50;24.10;99.90
70475;DHT22;57944;48.722;9.316;2022-07-29T05:42:23;24.60;99.90
70475;DHT22;57944;48.722;9.316;2022-07-29T05:44:53;25.10;99.90
70475;DHT22;57944;48.722;9.316;2022-07-29T05:47:24;25.10;99.90
70475;DHT22;57944;48.722;9.316;2022-07-29T05:49:54;25.00;99.90
70475;DHT22;57944;48.722;9.316;2022-07-29T05:54:57;25.70;99.90
70475;DHT22;57944;48.722;9.316;2022-07-29T05:57:29;26.30;99.90
70475;DHT22;57944;48.722;9.316;2022-07-29T05:59:59;26.80;99.90
70475;DHT22;57944;48.722;9.316;2022-07-29T06:02:38;27.20;99.90
70475;DHT22;57944;48.722;9.316;2022-07-29T06:05:08;27.10;99.90
70475;DHT22;57944;48.722;9.316;2022-07-29T06:07:45;26.50;99.90
70475;DHT22;57944;48.722;9.316;2022-07-29T06:10:17;26.40;99.90
70475;DHT22;57944;48.722;9.316;2022-07-29T06:12:52;26.00;99.90
70475;DHT22;57944;48.722;9.316;2022-07-29T06:15:23;26.30;99.90
70475;DHT22;57944;48.722;9.316;2022-07-29T06:17:53;26.30;99.90
70475;DHT22;57944;48.722;9.316;2022-07-29T06:20:26;25.50;99.90
70475;DHT22;57944;48.722;9.316;2022-07-29T06:23:00;26.00;99.90
70475;DHT22;57944;48.722;9.316;2022-07-29T06:25:31;26.40;99.90
70475;DHT22;57944;48.722;9.316;2022-07-29T06:28:03;26.60;99.90
70475;DHT22;57944;48.722;9.316;2022-07-29T06:30:33;27.40;99.90
70475;DHT22;57944;48.722;9.316;2022-07-29T06:33:04;28.20;99.90
70475;DHT22;57944;48.722;9.316;2022-07-29T06:35:34;28.80;99.90
70475;DHT22;57944;48.722;9.316;2022-07-29T06:38:11;29.20;99.90
70475;DHT22;57944;48.722;9.316;2022-07-29T06:40:59;30.30;99.90
70475;DHT22;57944;48.722;9.316;2022-07-29T06:43:32;31.60;99.90
70475;DHT22;57944;48.722;9.316;2022-07-29T06:46:18;31.70;99.90
70475;DHT22;57944;48.722;9.316;2022-07-29T06:48:50;32.80;99.10
70475;DHT22;57944;48.722;9.316;2022-07-29T06:51:22;33.80;97.30
70475;DHT22;57944;48.722;9.316;2022-07-29T06:53:55;34.80;95.30
70475;DHT22;57944;48.722;9.316;2022-07-29T06:56:30;34.60;94.90
70475;DHT22;57944;48.722;9.316;2022-07-29T06:59:06;34.20;95.10
70475;DHT22;57944;48.722;9.316;2022-07-29T07:01:37;33.30;95.70
70475;DHT22;57944;48.722;9.316;2022-07-29T07:04:09;32.60;96.00
70475;DHT22;57944;48.722;9.316;2022-07-29T07:06:40;32.40;96.30
70475;DHT22;57944;48.722;9.316;2022-07-29T07:09:13;32.60;95.50
70475;DHT22;57944;48.722;9.316;2022-07-29T07:11:43;32.10;95.20
70475;DHT22;57944;48.722;9.316;2022-07-29T07:14:16;32.00;96.00
70475;DHT22;57944;48.722;9.316;2022-07-29T07:16:47;31.20;96.20
70475;DHT22;57944;48.722;9.316;2022-07-29T07:19:19;30.10;98.10
70475;DHT22;57944;48.722;9.316;2022-07-29T07:21:49;29.00;99.60
70475;DHT22;57944;48.722;9.316;2022-07-29T07:24:24;28.70;99.90
70475;DHT22;57944;48.722;9.316;2022-07-29T07:26:54;28.80;99.90
70475;DHT22;57944;48.722;9.316;2022-07-29T07:29:24;28.90;99.90
70475;DHT22;57944;48.722;9.316;2022-07-29T07:31:54;28.70;99.90
70475;DHT22;57944;48.722;9.316;2022-07-29T07:34:27;28.10;99.90
70475;DHT22;57944;48.722;9.316;2022-07-29T07:36:57;28.20;99.90
70475;DHT22;57944;48.722;9.316;2022-07-29T07:39:29;27.80;99.90
70475;DHT22;57944;48.722;9.316;2022-07-29T07:41:59;27.40;99.90
70475;DHT22;57944;48.722;9.316;2022-07-29T07:44:29;26.90;99.90
70475;DHT22;57944;48.722;9.316;2022-07-29T07:47:19;26.40;99.90
70475;DHT22;57944;48.722;9.316;2022-07-29T07:49:53;26.10;99.90
70475;DHT22;57944;48.722;9.316;2022-07-29T07:52:23;26.10;99.90
70475;DHT22;57944;48.722;9.316;2022-07-29T07:54:56;25.90;99.90
70475;DHT22;57944;48.722;9.316;2022-07-29T07:57:26;26.20;99.90
70475;DHT22;57944;48.722;9.316;2022-07-29T07:59:56;26.30;99.90
70475;DHT22;57944;48.722;9.316;2022-07-29T08:02:27;26.40;99.90
70475;DHT22;57944;48.722;9.316;2022-07-29T08:04:57;26.60;99.90
70475;DHT22;57944;48.722;9.316;2022-07-29T08:07:27;26.70;99.90
70475;DHT22;57944;48.722;9.316;2022-07-29T08:09:59;26.80;99.90
70475;DHT22;57944;48.722;9.316;2022-07-29T08:12:29;26.60;99.90
70475;DHT22;57944;48.722;9.316;2022-07-29T08:15:00;26.80;99.90
70475;DHT22;57944;48.722;9.316;2022-07-29T08:17:30;26.70;99.90
70475;DHT22;57944;48.722;9.316;2022-07-29T08:20:01;26.90;99.90
70475;DHT22;57944;48.722;9.316;2022-07-29T08:22:31;27.00;99.90
70475;DHT22;57944;48.722;9.316;2022-07-29T08:25:04;27.10;99.90
70475;DHT22;57944;48.722;9.316;2022-07-29T08:27:35;27.20;99.90
70475;DHT22;57944;48.722;9.316;2022-07-29T08:30:11;27.00;99.90
70475;DHT22;57944;48.722;9.316;2022-07-29T08:32:41;26.80;99.90
70475;DHT22;57944;48.722;9.316;2022-07-29T08:35:22;26.50;99.90
70475;DHT22;57944;48.722;9.316;2022-07-29T08:37:55;26.20;99.90
70475;DHT22;57944;48.722;9.316;2022-07-29T08:40:30;25.90;99.90
70475;DHT22;57944;48.722;9.316;2022-07-29T08:43:04;26.30;99.90
70475;DHT22;57944;48.722;9.316;2022-07-29T08:45:42;26.50;99.90
70475;DHT22;57944;48.722;9.316;2022-07-29T08:48:16;26.80;99.90
70475;DHT22;57944;48.722;9.316;2022-07-29T08:50:48;27.00;99.90
70475;DHT22;57944;48.722;9.316;2022-07-29T08:53:24;27.40;99.90
70475;DHT22;57944;48.722;9.316;2022-07-29T08:55:59;27.60;99.90
70475;DHT22;57944;48.722;9.316;2022-07-29T08:58:32;27.80;99.90
70475;DHT22;57944;48.722;9.316;2022-07-29T09:01:05;27.70;99.90
70475;DHT22;57944;48.722;9.316;2022-07-29T09:03:40;27.60;99.90
70475;DHT22;57944;48.722;9.316;2022-07-29T09:06:13;27.30;99.90
70475;DHT22;57944;48.722;9.316;2022-07-29T09:08:44;27.00;99.90
70475;DHT22;57944;48.722;9.316;2022-07-29T09:11:18;27.10;99.90
70475;DHT22;57944;48.722;9.316;2022-07-29T09:13:48;27.30;99.90
70475;DHT22;57944;48.722;9.316;2022-07-29T09:16:18;27.50;99.90
70475;DHT22;57944;48.722;9.316;2022-07-29T09:19:19;27.60;99.90
70475;DHT22;57944;48.722;9.316;2022-07-29T09:21:54;27.90;99.90
70475;DHT22;57944;48.722;9.316;2022-07-29T09:24:40;28.20;99.90
70475;DHT22;57944;48.722;9.316;2022-07-29T09:27:20;28.50;99.90
70475;DHT22;57944;48.722;9.316;2022-07-29T09:29:57;29.00;99.90
70475;DHT22;57944;48.722;9.316;2022-07-29T09:32:29;29.50;99.90
70475;DHT22;57944;48.722;9.316;2022-07-29T09:35:16;30.20;99.90
70475;DHT22;57944;48.722;9.316;2022-07-29T09:37:48;31.70;99.90
70475;DHT22;57944;48.722;9.316;2022-07-29T09:40:20;34.50;96.40
70475;DHT22;57944;48.722;9.316;2022-07-29T09:42:54;36.40;91.00
70475;DHT22;57944;48.722;9.316;2022-07-29T09:45:30;37.10;88.60
70475;DHT22;57944;48.722;9.316;2022-07-29T09:48:13;37.90;85.20
70475;DHT22;57944;48.722;9.316;2022-07-29T09:50:46;38.70;82.30
70475;DHT22;57944;48.722;9.316;2022-07-29T09:53:31;38.60;80.00
70475;DHT22;57944;48.722;9.316;2022-07-29T09:56:04;38.20;79.10
70475;DHT22;57944;48.722;9.316;2022-07-29T09:58:40;37.10;79.30
70475;DHT22;57944;48.722;9.316;2022-07-29T10:01:10;37.10;79.30
70475;DHT22;57944;48.722;9.316;2022-07-29T10:03:50;37.80;78.90
70475;DHT22;57944;48.722;9.316;2022-07-29T10:06:21;37.40;77.20
70475;DHT22;57944;48.722;9.316;2022-07-29T10:08:51;37.50;77.60
70475;DHT22;57944;48.722;9.316;2022-07-29T10:11:21;36.90;78.70
70475;DHT22;57944;48.722;9.316;2022-07-29T10:14:15;37.70;78.90
70475;DHT22;57944;48.722;9.316;2022-07-29T10:16:45;38.70;75.10
70475;DHT22;57944;48.722;9.316;2022-07-29T10:19:17;40.00;72.50
70475;DHT22;57944;48.722;9.316;2022-07-29T10:21:47;39.90;71.00
70475;DHT22;57944;48.722;9.316;2022-07-29T10:24:25;39.30;70.40
70475;DHT22;57944;48.722;9.316;2022-07-29T10:26:57;38.90;70.50
70475;DHT22;57944;48.722;9.316;2022-07-29T10:29:32;39.70;70.00
70475;DHT22;57944;48.722;9.316;2022-07-29T10:32:20;41.40;66.50
70475;DHT22;57944;48.722;9.316;2022-07-29T10:35:15;41.60;64.60
70475;DHT22;57944;48.722;9.316;2022-07-29T10:41:13;37.90;66.10
70475;DHT22;57944;48.722;9.316;2022-07-29T10:44:14;36.50;70.30
70475;DHT22;57944;48.722;9.316;2022-07-29T10:46:52;36.10;72.10
70475;DHT22;57944;48.722;9.316;2022-07-29T10:49:24;36.50;71.50
70475;DHT22;57944;48.722;9.316;2022-07-29T10:51:59;35.70;71.50
70475;DHT22;57944;48.722;9.316;2022-07-29T10:54:48;35.00;71.80
70475;DHT22;57944;48.722;9.316;2022-07-29T10:57:23;35.20;72.20
70475;DHT22;57944;48.722;9.316;2022-07-29T11:00:31;35.00;74.80
70475;DHT22;57944;48.722;9.316;2022-07-29T11:03:04;34.60;75.40
70475;DHT22;57944;48.722;9.316;2022-07-29T11:05:53;34.30;77.00
70475;DHT22;57944;48.722;9.316;2022-07-29T11:08:25;33.90;77.50
70475;DHT22;57944;48.722;9.316;2022-07-29T11:11:30;33.40;77.60
70475;DHT22;57944;48.722;9.316;2022-07-29T11:14:03;32.50;79.40
70475;DHT22;57944;48.722;9.316;2022-07-29T11:16:58;32.10;80.20
70475;DHT22;57944;48.722;9.316;2022-07-29T11:19:35;31.60;82.50
70475;DHT22;57944;48.722;9.316;2022-07-29T11:22:32;31.10;83.00
70475;DHT22;57944;48.722;9.316;2022-07-29T11:25:15;29.20;87.50
70475;DHT22;57944;48.722;9.316;2022-07-29T11:28:15;27.40;89.30
70475;DHT22;57944;48.722;9.316;2022-07-29T11:30:52;26.40;90.40
70475;DHT22;57944;48.722;9.316;2022-07-29T11:33:28;24.80;99.90
70475;DHT22;57944;48.722;9.316;2022-07-29T11:36:21;19.80;99.90
70475;DHT22;57944;48.722;9.316;2022-07-29T11:39:25;16.60;99.90
70475;DHT22;57944;48.722;9.316;2022-07-29T11:45:12;15.70;99.90
70475;DHT22;57944;48.722;9.316;2022-07-29T11:48:07;15.90;99.90
70475;DHT22;57944;48.722;9.316;2022-07-29T11:50:56;16.10;99.90
70475;DHT22;57944;48.722;9.316;2022-07-29T11:53:31;16.40;99.90
70475;DHT22;57944;48.722;9.316;2022-07-29T11:56:04;16.50;99.90
70475;DHT22;57944;48.722;9.316;2022-07-29T11:58:42;16.70;99.90
70475;DHT22;57944;48.722;9.316;2022-07-29T12:01:17;16.90;99.90
70475;DHT22;57944;48.722;9.316;2022-07-29T12:04:02;17.10;99.90
70475;DHT22;57944;48.722;9.316;2022-07-29T12:06:34;17.50;99.90
70475;DHT22;57944;48.722;9.316;2022-07-29T12:09:09;17.80;99.90
70475;DHT22;57944;48.722;9.316;2022-07-29T12:11:40;18.10;99.90
70475;DHT22;57944;48.722;9.316;2022-07-29T12:14:26;18.30;99.90
70475;DHT22;57944;48.722;9.316;2022-07-29T12:16:58;18.50;99.90
70475;DHT22;57944;48.722;9.316;2022-07-29T12:19:42;18.60;99.90
70475;DHT22;57944;48.722;9.316;2022-07-29T12:22:24;18.80;99.90
70475;DHT22;57944;48.722;9.316;2022-07-29T12:25:01;19.00;99.90
70475;DHT22;57944;48.722;9.316;2022-07-29T12:28:01;19.20;99.90
70475;DHT22;57944;48.722;9.316;2022-07-29T12:30:38;19.50;99.90
70475;DHT22;57944;48.722;9.316;2022-07-29T12:33:17;19.50;99.90
70475;DHT22;57944;48.722;9.316;2022-07-29T12:35:52;19.30;99.90
70475;DHT22;57944;48.722;9.316;2022-07-29T12:38:33;19.30;99.90
70475;DHT22;57944;48.722;9.316;2022-07-29T12:41:06;19.40;99.90
70475;DHT22;57944;48.722;9.316;2022-07-29T12:43:37;19.50;99.90
70475;DHT22;57944;48.722;9.316;2022-07-29T12:46:13;19.60;99.90
70475;DHT22;57944;48.722;9.316;2022-07-29T12:48:44;19.70;99.90
70475;DHT22;57944;48.722;9.316;2022-07-29T12:51:14;19.50;99.90
70475;DHT22;57944;48.722;9.316;2022-07-29T12:54:02;19.40;99.90
70475;DHT22;57944;48.722;9.316;2022-07-29T12:56:37;19.40;99.90
70475;DHT22;57944;48.722;9.316;2022-07-29T12:59:14;19.30;99.90
70475;DHT22;57944;48.722;9.316;2022-07-29T13:01:47;19.50;99.90
70475;DHT22;57944;48.722;9.316;2022-07-29T13:04:25;19.60;99.90
70475;DHT22;57944;48.722;9.316;2022-07-29T13:07:00;19.50;99.90
70475;DHT22;57944;48.722;9.316;2022-07-29T13:09:37;19.70;99.90
70475;DHT22;57944;48.722;9.316;2022-07-29T13:12:12;19.70;99.90
70475;DHT22;57944;48.722;9.316;2022-07-29T13:14:45;19.80;99.90
70475;DHT22;57944;48.722;9.316;2022-07-29T13:17:18;19.70;99.90
70475;DHT22;57944;48.722;9.316;2022-07-29T13:19:51;19.70;99.90
70475;DHT22;57944;48.722;9.316;2022-07-29T13:22:23;19.60;99.90
70475;DHT22;57944;48.722;9.316;2022-07-29T13:24:57;19.40;99.90
70475;DHT22;57944;48.722;9.316;2022-07-29T13:27:32;19.30;99.90
70475;DHT22;57944;48.722;9.316;2022-07-29T13:30:06;19.20;99.90
70475;DHT22;57944;48.722;9.316;2022-07-29T13:32:38;19.30;99.90
70475;DHT22;57944;48.722;9.316;2022-07-29T13:35:09;19.20;99.90
70475;DHT22;57944;48.722;9.316;2022-07-29T13:37:40;19.30;99.90
70475;DHT22;57944;48.722;9.316;2022-07-29T13:40:11;19.30;99.90
70475;DHT22;57944;48.722;9.316;2022-07-29T13:42:45;19.20;99.90
70475;DHT22;57944;48.722;9.316;2022-07-29T13:45:15;19.20;99.90
70475;DHT22;57944;48.722;9.316;2022-07-29T13:47:45;19.20;99.90
70475;DHT22;57944;48.722;9.316;2022-07-29T13:50:15;19.40;99.90
70475;DHT22;57944;48.722;9.316;2022-07-29T13:52:45;19.50;99.90
70475;DHT22;57944;48.722;9.316;2022-07-29T13:55:17;19.80;99.90
70475;DHT22;57944;48.722;9.316;2022-07-29T13:57:50;20.00;99.90
70475;DHT22;57944;48.722;9.316;2022-07-29T14:00:20;20.10;99.90
70475;DHT22;57944;48.722;9.316;2022-07-29T14:02:51;20.30;99.90
70475;DHT22;57944;48.722;9.316;2022-07-29T14:05:21;20.60;99.90
70475;DHT22;57944;48.722;9.316;2022-07-29T14:07:51;21.00;99.90
70475;DHT22;57944;48.722;9.316;2022-07-29T14:10:21;21.30;99.90
70475;DHT22;57944;48.722;9.316;2022-07-29T14:12:54;21.80;99.90
70475;DHT22;57944;48.722;9.316;2022-07-29T14:15:24;22.20;99.90
70475;DHT22;57944;48.722;9.316;2022-07-29T14:17:54;22.40;99.90
70475;DHT22;57944;48.722;9.316;2022-07-29T14:20:24;22.10;99.90
70475;DHT22;57944;48.722;9.316;2022-07-29T14:22:56;21.80;99.90
70475;DHT22;57944;48.722;9.316;2022-07-29T14:25:27;22.20;99.90
70475;DHT22;57944;48.722;9.316;2022-07-29T14:30:31;23.00;99.90
70475;DHT22;57944;48.722;9.316;2022-07-29T14:33:02;23.40;99.90
70475;DHT22;57944;48.722;9.316;2022-07-29T14:35:32;23.70;99.90
70475;DHT22;57944;48.722;9.316;2022-07-29T14:38:02;23.90;99.90
70475;DHT22;57944;48.722;9.316;2022-07-29T14:40:32;24.20;99.90
70475;DHT22;57944;48.722;9.316;2022-07-29T14:43:05;24.30;99.90
70475;DHT22;57944;48.722;9.316;2022-07-29T14:45:35;24.40;99.90
70475;DHT22;57944;48.722;9.316;2022-07-29T14:48:06;24.50;99.90
70475;DHT22;57944;48.722;9.316;2022-07-29T14:50:36;24.50;99.90
70475;DHT22;57944;48.722;9.316;2022-07-29T14:53:06;24.40;99.90
70475;DHT22;57944;48.722;9.316;2022-07-29T14:55:36;24.50;99.90
70475;DHT22;57944;48.722;9.316;2022-07-29T14:58:09;24.50;99.90
70475;DHT22;57944;48.722;9.316;2022-07-29T15:00:42;24.30;99.90
70475;DHT22;57944;48.722;9.316;2022-07-29T15:03:12;24.10;99.90
70475;DHT22;57944;48.722;9.316;2022-07-29T15:05:50;24.20;99.90
70475;DHT22;57944;48.722;9.316;2022-07-29T15:08:20;24.20;99.90
70475;DHT22;57944;48.722;9.316;2022-07-29T15:10:52;24.20;99.90
70475;DHT22;57944;48.722;9.316;2022-07-29T15:13:26;24.30;99.90
70475;DHT22;57944;48.722;9.316;2022-07-29T15:15:57;24.20;99.90
70475;DHT22;57944;48.722;9.316;2022-07-29T15:18:27;24.20;99.90
70475;DHT22;57944;48.722;9.316;2022-07-29T15:20:57;24.10;99.90
70475;DHT22;57944;48.722;9.316;2022-07-29T15:23:29;24.10;99.90
70475;DHT22;57944;48.722;9.316;2022-07-29T15:25:59;24.00;99.90
70475;DHT22;57944;48.722;9.316;2022-07-29T15:28:31;23.90;99.90
70475;DHT22;57944;48.722;9.316;2022-07-29T15:31:01;24.00;99.90
70475;DHT22;57944;48.722;9.316;2022-07-29T15:33:31;23.90;99.90
70475;DHT22;57944;48.722;9.316;2022-07-29T15:36:01;24.00;99.90
70475;DHT22;57944;48.722;9.316;2022-07-29T15:38:32;24.10;99.90
70475;DHT22;57944;48.722;9.316;2022-07-29T15:41:08;24.20;99.90
70475;DHT22;57944;48.722;9.316;2022-07-29T15:43:43;24.20;99.90
70475;DHT22;57944;48.722;9.316;2022-07-29T15:46:15;24.20;99.90
70475;DHT22;57944;48.722;9.316;2022-07-29T15:48:59;24.20;99.90
70475;DHT22;57944;48.722;9.316;2022-07-29T15:51:30;24.20;99.90
70475;DHT22;57944;48.722;9.316;2022-07-29T15:54:01;24.20;99.90
70475;DHT22;57944;48.722;9.316;2022-07-29T15:56:32;24.10;99.90
70475;DHT22;57944;48.722;9.316;2022-07-29T15:59:05;24.10;99.90
70475;DHT22;57944;48.722;9.316;2022-07-29T16:01:48;24.00;99.90
70475;DHT22;57944;48.722;9.316;2022-07-29T16:04:18;23.90;99.90
70475;DHT22;57944;48.722;9.316;2022-07-29T16:06:48;23.90;99.90
70475;DHT22;57944;48.722;9.316;2022-07-29T16:09:20;23.90;99.90
70475;DHT22;57944;48.722;9.316;2022-07-29T16:11:50;24.10;99.90
70475;DHT22;57944;48.722;9.316;2022-07-29T16:14:22;24.40;99.90
70475;DHT22;57944;48.722;9.316;2022-07-29T16:16:54;24.50;99.90
70475;DHT22;57944;48.722;9.316;2022-07-29T16:19:24;24.80;99.90
70475;DHT22;57944;48.722;9.316;2022-07-29T16:21:54;24.90;99.90
70475;DHT22;57944;48.722;9.316;2022-07-29T16:24:25;25.00;99.90
70475;DHT22;57944;48.722;9.316;2022-07-29T16:26:57;25.00;99.90
70475;DHT22;57944;48.722;9.316;2022-07-29T16:29:30;24.90;99.90
70475;DHT22;57944;48.722;9.316;2022-07-29T16:32:00;24.80;99.90